sensor_id;sensor_type;location;lat;lon;timestamp;pressure;altitude;pressure_sealevel;temperature;humidity
6194;BME280;3130;41.564;23.280;2023-09-18T00:00:34;99165.16;;;18.19;nan
6194;BME280;3130;41.564;23.280;2023-09-18T00:03:02;99165.81;;;18.12;nan
6194;BME280;3130;41.564;23.280;2023-09-18T00:05:29;99140.09;;;17.99;nan
6194;BME280;3130;41.564;23.280;2023-09-18T00:07:56;99160.47;;;18.13;nan
6194;BME280;3130;41.564;23.280;2023-09-18T00:10:26;99164.47;;;18.17;nan
6194;BME280;3130;41.564;23.280;2023-09-18T00:12:54;99164.31;;;18.18;nan
6194;BME280;3130;41.564;23.280;2023-09-18T00:15:23;99168.44;;;18.21;nan
6194;BME280;3130;41.564;23.280;2023-09-18T00:17:50;99162.97;;;18.15;nan
6194;BME280;3130;41.564;23.280;2023-09-18T00:20:17;99143.25;;;18.03;nan
6194;BME280;3130;41.564;23.280;2023-09-18T00:22:45;99139.56;;;17.96;nan
6194;BME280;3130;41.564;23.280;2023-09-18T00:25:12;99167.91;;;18.18;nan
6194;BME280;3130;41.564;23.280;2023-09-18T00:27:40;99171.41;;;18.07;nan
6194;BME280;3130;41.564;23.280;2023-09-18T00:30:08;99173.44;;;18.04;nan
6194;BME280;3130;41.564;23.280;2023-09-18T00:32:36;99160.56;;;17.93;nan
6194;BME280;3130;41.564;23.280;2023-09-18T00:35:04;99150.94;;;17.74;nan
6194;BME280;3130;41.564;23.280;2023-09-18T00:37:31;99173.25;;;17.86;nan
6194;BME280;3130;41.564;23.280;2023-09-18T00:39:58;99170.34;;;17.80;nan
6194;BME280;3130;41.564;23.280;2023-09-18T00:42:25;99165.53;;;17.75;nan
6194;BME280;3130;41.564;23.280;2023-09-18T00:44:53;99103.25;;;17.36;nan
6194;BME280;3130;41.564;23.280;2023-09-18T00:47:20;99180.16;;;17.76;nan
6194;BME280;3130;41.564;23.280;2023-09-18T00:49:50;99141.81;;;17.50;nan
6194;BME280;3130;41.564;23.280;2023-09-18T00:52:19;99187.22;;;17.95;nan
6194;BME280;3130;41.564;23.280;2023-09-18T00:54:49;99185.34;;;18.06;nan
6194;BME280;3130;41.564;23.280;2023-09-18T00:57:16;99188.16;;;17.94;nan
6194;BME280;3130;41.564;23.280;2023-09-18T00:59:44;99171.13;;;17.71;nan
6194;BME280;3130;41.564;23.280;2023-09-18T01:02:12;99194.66;;;17.79;nan
6194;BME280;3130;41.564;23.280;2023-09-18T01:04:39;99198.44;;;17.75;nan
6194;BME280;3130;41.564;23.280;2023-09-18T01:07:11;99150.66;;;17.47;nan
6194;BME280;3130;41.564;23.280;2023-09-18T01:09:38;99192.53;;;17.63;nan
6194;BME280;3130;41.564;23.280;2023-09-18T01:12:15;99163.19;;;17.42;nan
6194;BME280;3130;41.564;23.280;2023-09-18T01:14:50;99181.09;;;17.45;nan
6194;BME280;3130;41.564;23.280;2023-09-18T01:17:23;99190.06;;;17.41;nan
6194;BME280;3130;41.564;23.280;2023-09-18T01:19:51;99193.94;;;17.47;nan
6194;BME280;3130;41.564;23.280;2023-09-18T01:22:19;99195.16;;;17.43;nan
6194;BME280;3130;41.564;23.280;2023-09-18T01:24:48;99190.75;;;17.43;nan
6194;BME280;3130;41.564;23.280;2023-09-18T01:27:16;99133.28;;;16.98;nan
6194;BME280;3130;41.564;23.280;2023-09-18T01:29:44;99193.44;;;17.32;nan
6194;BME280;3130;41.564;23.280;2023-09-18T01:32:11;99192.50;;;17.22;nan
6194;BME280;3130;41.564;23.280;2023-09-18T01:34:40;99188.28;;;17.21;nan
6194;BME280;3130;41.564;23.280;2023-09-18T01:37:09;99190.19;;;17.19;nan
6194;BME280;3130;41.564;23.280;2023-09-18T01:39:37;99191.50;;;17.14;nan
6194;BME280;3130;41.564;23.280;2023-09-18T01:42:06;99189.34;;;17.19;nan
6194;BME280;3130;41.564;23.280;2023-09-18T01:44:36;99087.47;;;16.57;nan
6194;BME280;3130;41.564;23.280;2023-09-18T01:47:05;99188.84;;;17.25;nan
6194;BME280;3130;41.564;23.280;2023-09-18T01:49:35;99188.59;;;17.28;nan
6194;BME280;3130;41.564;23.280;2023-09-18T01:52:03;99188.97;;;17.23;nan
6194;BME280;3130;41.564;23.280;2023-09-18T01:54:31;99192.50;;;17.22;nan
6194;BME280;3130;41.564;23.280;2023-09-18T01:56:58;99194.59;;;17.28;nan
6194;BME280;3130;41.564;23.280;2023-09-18T01:59:26;99165.41;;;17.06;nan
6194;BME280;3130;41.564;23.280;2023-09-18T02:01:53;99195.38;;;17.19;nan
6194;BME280;3130;41.564;23.280;2023-09-18T02:04:21;99197.81;;;17.21;nan
6194;BME280;3130;41.564;23.280;2023-09-18T02:06:50;99194.97;;;17.24;nan
6194;BME280;3130;41.564;23.280;2023-09-18T02:09:17;99194.28;;;17.22;nan
6194;BME280;3130;41.564;23.280;2023-09-18T02:11:45;99174.81;;;17.07;nan
6194;BME280;3130;41.564;23.280;2023-09-18T02:14:13;99173.66;;;17.00;nan
6194;BME280;3130;41.564;23.280;2023-09-18T02:16:42;99162.91;;;17.05;nan
6194;BME280;3130;41.564;23.280;2023-09-18T02:19:12;99204.50;;;17.23;nan
6194;BME280;3130;41.564;23.280;2023-09-18T02:21:39;99205.16;;;17.16;nan
6194;BME280;3130;41.564;23.280;2023-09-18T02:24:06;99112.72;;;16.65;nan
6194;BME280;3130;41.564;23.280;2023-09-18T02:26:34;99196.09;;;17.11;nan
6194;BME280;3130;41.564;23.280;2023-09-18T02:29:05;99198.91;;;17.18;nan
6194;BME280;3130;41.564;23.280;2023-09-18T02:31:32;99213.69;;;17.27;nan
6194;BME280;3130;41.564;23.280;2023-09-18T02:34:00;99205.22;;;17.25;nan
6194;BME280;3130;41.564;23.280;2023-09-18T02:36:27;99204.66;;;17.22;nan
6194;BME280;3130;41.564;23.280;2023-09-18T02:38:55;99194.34;;;17.11;nan
6194;BME280;3130;41.564;23.280;2023-09-18T02:41:22;99193.53;;;17.11;nan
6194;BME280;3130;41.564;23.280;2023-09-18T02:43:49;99198.25;;;17.06;nan
6194;BME280;3130;41.564;23.280;2023-09-18T02:46:16;99178.84;;;17.00;nan
6194;BME280;3130;41.564;23.280;2023-09-18T02:48:43;99197.13;;;17.19;nan
6194;BME280;3130;41.564;23.280;2023-09-18T02:51:11;99199.22;;;17.25;nan
6194;BME280;3130;41.564;23.280;2023-09-18T02:53:38;99201.69;;;17.26;nan
6194;BME280;3130;41.564;23.280;2023-09-18T02:56:05;99199.25;;;17.14;nan
6194;BME280;3130;41.564;23.280;2023-09-18T02:58:33;99196.75;;;17.23;nan
6194;BME280;3130;41.564;23.280;2023-09-18T03:01:00;99181.13;;;17.14;nan
6194;BME280;3130;41.564;23.280;2023-09-18T03:03:29;99184.38;;;17.27;nan
6194;BME280;3130;41.564;23.280;2023-09-18T03:06:00;99200.72;;;17.38;nan
6194;BME280;3130;41.564;23.280;2023-09-18T03:08:30;99198.22;;;17.37;nan
6194;BME280;3130;41.564;23.280;2023-09-18T03:10:57;99169.25;;;17.12;nan
6194;BME280;3130;41.564;23.280;2023-09-18T03:13:26;99213.53;;;17.40;nan
6194;BME280;3130;41.564;23.280;2023-09-18T03:15:53;99210.63;;;17.33;nan
6194;BME280;3130;41.564;23.280;2023-09-18T03:18:20;99182.06;;;17.13;nan
6194;BME280;3130;41.564;23.280;2023-09-18T03:20:47;99204.97;;;17.28;nan
6194;BME280;3130;41.564;23.280;2023-09-18T03:23:15;99202.31;;;17.30;nan
6194;BME280;3130;41.564;23.280;2023-09-18T03:25:44;99194.13;;;17.34;nan
6194;BME280;3130;41.564;23.280;2023-09-18T03:28:11;99076.19;;;16.47;nan
6194;BME280;3130;41.564;23.280;2023-09-18T03:30:38;99196.56;;;17.16;nan
6194;BME280;3130;41.564;23.280;2023-09-18T03:33:05;99200.59;;;17.09;nan
6194;BME280;3130;41.564;23.280;2023-09-18T03:35:45;99133.06;;;16.69;nan
6194;BME280;3130;41.564;23.280;2023-09-18T03:38:12;99190.22;;;17.09;nan
6194;BME280;3130;41.564;23.280;2023-09-18T03:40:39;99182.38;;;16.99;nan
6194;BME280;3130;41.564;23.280;2023-09-18T03:45:35;99187.13;;;16.94;nan
6194;BME280;3130;41.564;23.280;2023-09-18T03:48:03;99175.47;;;16.89;nan
6194;BME280;3130;41.564;23.280;2023-09-18T03:50:30;99144.13;;;16.71;nan
6194;BME280;3130;41.564;23.280;2023-09-18T03:52:57;99194.34;;;17.11;nan
6194;BME280;3130;41.564;23.280;2023-09-18T03:55:24;99174.59;;;16.99;nan
6194;BME280;3130;41.564;23.280;2023-09-18T03:57:52;99193.34;;;17.03;nan
6194;BME280;3130;41.564;23.280;2023-09-18T04:00:21;99184.66;;;16.93;nan
6194;BME280;3130;41.564;23.280;2023-09-18T04:02:48;99196.34;;;17.08;nan
6194;BME280;3130;41.564;23.280;2023-09-18T04:05:16;99171.31;;;16.97;nan
6194;BME280;3130;41.564;23.280;2023-09-18T04:07:43;99190.38;;;17.07;nan
6194;BME280;3130;41.564;23.280;2023-09-18T04:10:12;99186.31;;;17.14;nan
6194;BME280;3130;41.564;23.280;2023-09-18T04:12:44;99197.69;;;17.22;nan
6194;BME280;3130;41.564;23.280;2023-09-18T04:15:15;99191.44;;;17.25;nan
6194;BME280;3130;41.564;23.280;2023-09-18T04:17:45;99199.34;;;17.23;nan
6194;BME280;3130;41.564;23.280;2023-09-18T04:20:12;99198.13;;;17.27;nan
6194;BME280;3130;41.564;23.280;2023-09-18T04:22:43;99175.53;;;17.09;nan
6194;BME280;3130;41.564;23.280;2023-09-18T04:25:10;99194.75;;;17.27;nan
6194;BME280;3130;41.564;23.280;2023-09-18T04:27:37;99203.31;;;17.27;nan
6194;BME280;3130;41.564;23.280;2023-09-18T04:30:06;99208.66;;;17.26;nan
6194;BME280;3130;41.564;23.280;2023-09-18T04:32:35;99205.91;;;17.27;nan
6194;BME280;3130;41.564;23.280;2023-09-18T04:35:04;99199.56;;;17.31;nan
6194;BME280;3130;41.564;23.280;2023-09-18T04:37:35;99214.78;;;17.25;nan
6194;BME280;3130;41.564;23.280;2023-09-18T04:40:03;99212.19;;;17.25;nan
6194;BME280;3130;41.564;23.280;2023-09-18T04:42:30;99212.03;;;17.26;nan
6194;BME280;3130;41.564;23.280;2023-09-18T04:44:57;99222.81;;;17.22;nan
6194;BME280;3130;41.564;23.280;2023-09-18T04:47:24;99214.75;;;17.36;nan
6194;BME280;3130;41.564;23.280;2023-09-18T04:49:51;99214.81;;;17.45;nan
6194;BME280;3130;41.564;23.280;2023-09-18T04:52:19;99218.16;;;17.57;nan
6194;BME280;3130;41.564;23.280;2023-09-18T04:54:47;99217.38;;;17.66;nan
6194;BME280;3130;41.564;23.280;2023-09-18T04:57:14;99216.94;;;17.61;nan
6194;BME280;3130;41.564;23.280;2023-09-18T04:59:41;99227.88;;;17.64;nan
6194;BME280;3130;41.564;23.280;2023-09-18T05:02:08;99223.09;;;17.60;nan
6194;BME280;3130;41.564;23.280;2023-09-18T05:04:35;99199.56;;;17.52;nan
6194;BME280;3130;41.564;23.280;2023-09-18T05:07:02;99126.91;;;17.02;nan
6194;BME280;3130;41.564;23.280;2023-09-18T05:09:31;99220.25;;;17.63;nan
6194;BME280;3130;41.564;23.280;2023-09-18T05:12:00;99223.53;;;17.65;nan
6194;BME280;3130;41.564;23.280;2023-09-18T05:14:27;99213.28;;;17.63;nan
6194;BME280;3130;41.564;23.280;2023-09-18T05:16:54;99229.50;;;17.86;nan
6194;BME280;3130;41.564;23.280;2023-09-18T05:19:21;99222.84;;;17.93;nan
6194;BME280;3130;41.564;23.280;2023-09-18T05:21:48;99229.72;;;18.03;nan
6194;BME280;3130;41.564;23.280;2023-09-18T05:24:15;99188.81;;;17.86;nan
6194;BME280;3130;41.564;23.280;2023-09-18T05:26:44;99234.09;;;18.32;nan
6194;BME280;3130;41.564;23.280;2023-09-18T05:29:11;99205.13;;;18.27;nan
6194;BME280;3130;41.564;23.280;2023-09-18T05:31:38;99236.38;;;18.65;nan
6194;BME280;3130;41.564;23.280;2023-09-18T05:34:05;99233.38;;;18.89;nan
6194;BME280;3130;41.564;23.280;2023-09-18T05:36:32;99239.28;;;19.10;nan
6194;BME280;3130;41.564;23.280;2023-09-18T05:38:59;99244.91;;;19.24;nan
6194;BME280;3130;41.564;23.280;2023-09-18T05:41:26;99243.25;;;19.42;nan
6194;BME280;3130;41.564;23.280;2023-09-18T05:43:56;99243.38;;;19.59;nan
6194;BME280;3130;41.564;23.280;2023-09-18T05:46:23;99146.50;;;19.10;nan
6194;BME280;3130;41.564;23.280;2023-09-18T05:48:50;99248.00;;;19.84;nan
6194;BME280;3130;41.564;23.280;2023-09-18T05:51:19;99247.66;;;19.97;nan
6194;BME280;3130;41.564;23.280;2023-09-18T05:53:46;99134.31;;;19.39;nan
6194;BME280;3130;41.564;23.280;2023-09-18T05:56:13;99240.91;;;20.13;nan
6194;BME280;3130;41.564;23.280;2023-09-18T05:58:42;99186.84;;;19.88;nan
6194;BME280;3130;41.564;23.280;2023-09-18T06:01:11;99258.41;;;20.30;nan
6194;BME280;3130;41.564;23.280;2023-09-18T06:03:38;99158.25;;;19.79;nan
6194;BME280;3130;41.564;23.280;2023-09-18T06:06:06;99268.50;;;20.42;nan
6194;BME280;3130;41.564;23.280;2023-09-18T06:08:33;99219.81;;;20.16;nan
6194;BME280;3130;41.564;23.280;2023-09-18T06:11:00;99258.38;;;20.57;nan
6194;BME280;3130;41.564;23.280;2023-09-18T06:13:28;99199.66;;;20.18;nan
6194;BME280;3130;41.564;23.280;2023-09-18T06:15:55;99271.97;;;20.60;nan
6194;BME280;3130;41.564;23.280;2023-09-18T06:18:24;99271.50;;;20.65;nan
6194;BME280;3130;41.564;23.280;2023-09-18T06:20:51;99237.69;;;20.55;nan
6194;BME280;3130;41.564;23.280;2023-09-18T06:23:18;99217.19;;;20.43;nan
6194;BME280;3130;41.564;23.280;2023-09-18T06:25:45;99257.06;;;20.70;nan
6194;BME280;3130;41.564;23.280;2023-09-18T06:28:12;99271.16;;;20.87;nan
6194;BME280;3130;41.564;23.280;2023-09-18T06:30:39;99270.13;;;20.97;nan
6194;BME280;3130;41.564;23.280;2023-09-18T06:33:06;99221.16;;;20.64;nan
6194;BME280;3130;41.564;23.280;2023-09-18T06:35:35;99263.31;;;20.87;nan
6194;BME280;3130;41.564;23.280;2023-09-18T06:38:03;99269.78;;;20.83;nan
6194;BME280;3130;41.564;23.280;2023-09-18T06:40:32;99265.72;;;20.80;nan
6194;BME280;3130;41.564;23.280;2023-09-18T06:42:59;99202.56;;;20.32;nan
6194;BME280;3130;41.564;23.280;2023-09-18T06:45:26;99281.47;;;20.79;nan
6194;BME280;3130;41.564;23.280;2023-09-18T06:47:54;99272.41;;;20.83;nan
6194;BME280;3130;41.564;23.280;2023-09-18T06:50:21;99276.19;;;20.88;nan
6194;BME280;3130;41.564;23.280;2023-09-18T06:52:49;99269.97;;;20.99;nan
6194;BME280;3130;41.564;23.280;2023-09-18T06:55:16;99242.75;;;20.84;nan
6194;BME280;3130;41.564;23.280;2023-09-18T06:57:43;99271.97;;;21.05;nan
6194;BME280;3130;41.564;23.280;2023-09-18T07:00:12;99200.69;;;20.69;nan
6194;BME280;3130;41.564;23.280;2023-09-18T07:02:44;99271.28;;;21.20;nan
6194;BME280;3130;41.564;23.280;2023-09-18T07:05:11;99265.94;;;21.22;nan
6194;BME280;3130;41.564;23.280;2023-09-18T07:07:38;99271.59;;;21.34;nan
6194;BME280;3130;41.564;23.280;2023-09-18T07:10:07;99271.69;;;21.42;nan
6194;BME280;3130;41.564;23.280;2023-09-18T07:12:34;99273.16;;;21.45;nan
6194;BME280;3130;41.564;23.280;2023-09-18T07:15:02;99272.22;;;21.54;nan
6194;BME280;3130;41.564;23.280;2023-09-18T07:17:30;99271.72;;;21.50;nan
6194;BME280;3130;41.564;23.280;2023-09-18T07:19:57;99277.41;;;21.46;nan
6194;BME280;3130;41.564;23.280;2023-09-18T07:22:24;99267.44;;;21.41;nan
6194;BME280;3130;41.564;23.280;2023-09-18T07:24:51;99268.22;;;21.42;nan
6194;BME280;3130;41.564;23.280;2023-09-18T07:27:20;99269.91;;;21.60;nan
6194;BME280;3130;41.564;23.280;2023-09-18T07:29:47;99267.69;;;21.73;nan
6194;BME280;3130;41.564;23.280;2023-09-18T07:32:14;99253.66;;;21.74;nan
6194;BME280;3130;41.564;23.280;2023-09-18T07:34:42;99273.81;;;21.90;nan
6194;BME280;3130;41.564;23.280;2023-09-18T07:37:12;99277.19;;;22.00;nan
6194;BME280;3130;41.564;23.280;2023-09-18T07:39:41;99206.91;;;21.63;nan
6194;BME280;3130;41.564;23.280;2023-09-18T07:42:08;99281.22;;;22.53;nan
6194;BME280;3130;41.564;23.280;2023-09-18T07:44:37;99210.25;;;23.29;nan
6194;BME280;3130;41.564;23.280;2023-09-18T07:47:04;99281.97;;;25.59;nan
6194;BME280;3130;41.564;23.280;2023-09-18T07:49:31;99279.28;;;29.55;nan
6194;BME280;3130;41.564;23.280;2023-09-18T07:51:58;99278.94;;;33.33;nan
6194;BME280;3130;41.564;23.280;2023-09-18T07:54:26;99276.81;;;36.01;nan
6194;BME280;3130;41.564;23.280;2023-09-18T07:56:53;99276.91;;;37.39;nan
6194;BME280;3130;41.564;23.280;2023-09-18T07:59:20;99210.03;;;38.32;nan
6194;BME280;3130;41.564;23.280;2023-09-18T08:01:48;99265.34;;;39.44;nan
6194;BME280;3130;41.564;23.280;2023-09-18T08:04:15;99269.59;;;40.19;nan
6194;BME280;3130;41.564;23.280;2023-09-18T08:06:42;99255.59;;;40.17;nan
6194;BME280;3130;41.564;23.280;2023-09-18T08:09:10;99247.19;;;41.02;nan
6194;BME280;3130;41.564;23.280;2023-09-18T08:11:40;99260.28;;;42.37;nan
6194;BME280;3130;41.564;23.280;2023-09-18T08:14:08;99257.53;;;43.71;nan
6194;BME280;3130;41.564;23.280;2023-09-18T08:16:37;99259.09;;;44.57;nan
6194;BME280;3130;41.564;23.280;2023-09-18T08:19:06;99244.09;;;44.51;nan
6194;BME280;3130;41.564;23.280;2023-09-18T08:21:33;99152.16;;;42.52;nan
6194;BME280;3130;41.564;23.280;2023-09-18T08:24:00;99242.25;;;39.77;nan
6194;BME280;3130;41.564;23.280;2023-09-18T08:26:27;99237.28;;;36.62;nan
6194;BME280;3130;41.564;23.280;2023-09-18T08:28:55;99235.34;;;34.60;nan
6194;BME280;3130;41.564;23.280;2023-09-18T08:31:22;99228.16;;;33.23;nan
6194;BME280;3130;41.564;23.280;2023-09-18T08:33:49;99231.00;;;31.92;nan
6194;BME280;3130;41.564;23.280;2023-09-18T08:36:19;99229.56;;;30.79;nan
6194;BME280;3130;41.564;23.280;2023-09-18T08:38:46;99203.59;;;29.99;nan
6194;BME280;3130;41.564;23.280;2023-09-18T08:41:14;99210.31;;;29.70;nan
6194;BME280;3130;41.564;23.280;2023-09-18T08:43:45;99188.97;;;29.19;nan
6194;BME280;3130;41.564;23.280;2023-09-18T08:46:14;99133.81;;;28.65;nan
6194;BME280;3130;41.564;23.280;2023-09-18T08:48:42;99160.19;;;28.58;nan
6194;BME280;3130;41.564;23.280;2023-09-18T08:51:10;99197.19;;;28.65;nan
6194;BME280;3130;41.564;23.280;2023-09-18T08:53:39;99189.66;;;28.62;nan
6194;BME280;3130;41.564;23.280;2023-09-18T08:56:07;99197.78;;;28.60;nan
6194;BME280;3130;41.564;23.280;2023-09-18T08:58:36;99171.88;;;28.30;nan
6194;BME280;3130;41.564;23.280;2023-09-18T09:01:05;99196.66;;;28.35;nan
6194;BME280;3130;41.564;23.280;2023-09-18T09:03:35;99187.13;;;28.34;nan
6194;BME280;3130;41.564;23.280;2023-09-18T09:06:02;99180.03;;;28.35;nan
6194;BME280;3130;41.564;23.280;2023-09-18T09:08:30;99099.84;;;27.55;nan
6194;BME280;3130;41.564;23.280;2023-09-18T09:10:58;99177.56;;;27.93;nan
6194;BME280;3130;41.564;23.280;2023-09-18T09:13:26;99128.56;;;27.71;nan
6194;BME280;3130;41.564;23.280;2023-09-18T09:15:54;99188.19;;;28.12;nan
6194;BME280;3130;41.564;23.280;2023-09-18T09:18:23;99189.28;;;27.84;nan
6194;BME280;3130;41.564;23.280;2023-09-18T09:20:54;99180.31;;;27.78;nan
6194;BME280;3130;41.564;23.280;2023-09-18T09:23:24;99171.94;;;27.68;nan
6194;BME280;3130;41.564;23.280;2023-09-18T09:25:51;99160.81;;;27.73;nan
6194;BME280;3130;41.564;23.280;2023-09-18T09:28:29;99169.22;;;27.89;nan
6194;BME280;3130;41.564;23.280;2023-09-18T09:31:00;99165.03;;;28.01;nan
6194;BME280;3130;41.564;23.280;2023-09-18T09:33:28;99166.28;;;28.05;nan
6194;BME280;3130;41.564;23.280;2023-09-18T09:35:56;99134.66;;;27.71;nan
6194;BME280;3130;41.564;23.280;2023-09-18T09:38:29;99126.53;;;27.73;nan
6194;BME280;3130;41.564;23.280;2023-09-18T09:40:59;99145.69;;;27.88;nan
6194;BME280;3130;41.564;23.280;2023-09-18T09:43:30;99151.09;;;27.73;nan
6194;BME280;3130;41.564;23.280;2023-09-18T09:45:58;99141.34;;;27.74;nan
6194;BME280;3130;41.564;23.280;2023-09-18T09:48:25;99139.00;;;27.58;nan
6194;BME280;3130;41.564;23.280;2023-09-18T09:50:57;99146.88;;;27.52;nan
6194;BME280;3130;41.564;23.280;2023-09-18T09:53:43;99135.75;;;27.29;nan
6194;BME280;3130;41.564;23.280;2023-09-18T09:56:12;99092.00;;;27.07;nan
6194;BME280;3130;41.564;23.280;2023-09-18T09:58:41;99075.31;;;27.21;nan
6194;BME280;3130;41.564;23.280;2023-09-18T10:01:12;99122.56;;;27.56;nan
6194;BME280;3130;41.564;23.280;2023-09-18T10:03:44;99094.97;;;27.52;nan
6194;BME280;3130;41.564;23.280;2023-09-18T10:06:12;99108.28;;;27.71;nan
6194;BME280;3130;41.564;23.280;2023-09-18T10:08:40;99116.69;;;27.88;nan
6194;BME280;3130;41.564;23.280;2023-09-18T10:11:09;99114.53;;;28.04;nan
6194;BME280;3130;41.564;23.280;2023-09-18T10:13:46;99111.13;;;28.17;nan
6194;BME280;3130;41.564;23.280;2023-09-18T10:16:17;99053.22;;;27.89;nan
6194;BME280;3130;41.564;23.280;2023-09-18T10:18:54;99098.41;;;28.40;nan
6194;BME280;3130;41.564;23.280;2023-09-18T10:21:26;99072.22;;;28.32;nan
6194;BME280;3130;41.564;23.280;2023-09-18T10:24:02;99102.31;;;28.50;nan
6194;BME280;3130;41.564;23.280;2023-09-18T10:26:35;99064.44;;;28.24;nan
6194;BME280;3130;41.564;23.280;2023-09-18T10:29:07;99084.66;;;27.97;nan
6194;BME280;3130;41.564;23.280;2023-09-18T10:31:38;99050.31;;;27.78;nan
6194;BME280;3130;41.564;23.280;2023-09-18T10:34:07;99089.41;;;28.21;nan
6194;BME280;3130;41.564;23.280;2023-09-18T10:36:36;99072.22;;;28.25;nan
6194;BME280;3130;41.564;23.280;2023-09-18T10:39:05;99080.00;;;28.53;nan
6194;BME280;3130;41.564;23.280;2023-09-18T10:41:33;99044.22;;;28.50;nan
6194;BME280;3130;41.564;23.280;2023-09-18T10:44:01;99070.88;;;28.81;nan
6194;BME280;3130;41.564;23.280;2023-09-18T10:46:31;98968.31;;;28.26;nan
6194;BME280;3130;41.564;23.280;2023-09-18T10:48:59;99061.97;;;28.88;nan
6194;BME280;3130;41.564;23.280;2023-09-18T10:51:29;98983.94;;;28.54;nan
6194;BME280;3130;41.564;23.280;2023-09-18T10:53:59;99040.22;;;28.86;nan
6194;BME280;3130;41.564;23.280;2023-09-18T10:56:26;98998.97;;;28.53;nan
6194;BME280;3130;41.564;23.280;2023-09-18T10:58:58;99034.91;;;28.73;nan
6194;BME280;3130;41.564;23.280;2023-09-18T11:01:27;99051.97;;;28.65;nan
6194;BME280;3130;41.564;23.280;2023-09-18T11:04:00;99048.09;;;28.54;nan
6194;BME280;3130;41.564;23.280;2023-09-18T11:06:28;99037.72;;;28.40;nan
6194;BME280;3130;41.564;23.280;2023-09-18T11:08:59;99031.03;;;28.50;nan
6194;BME280;3130;41.564;23.280;2023-09-18T11:11:30;99005.06;;;28.54;nan
6194;BME280;3130;41.564;23.280;2023-09-18T11:13:59;99028.44;;;28.82;nan
6194;BME280;3130;41.564;23.280;2023-09-18T11:16:34;99019.28;;;28.72;nan
6194;BME280;3130;41.564;23.280;2023-09-18T11:19:12;98976.63;;;28.49;nan
6194;BME280;3130;41.564;23.280;2023-09-18T11:21:43;99011.34;;;28.91;nan
6194;BME280;3130;41.564;23.280;2023-09-18T11:24:16;99019.06;;;28.99;nan
6194;BME280;3130;41.564;23.280;2023-09-18T11:26:45;99014.19;;;29.03;nan
6194;BME280;3130;41.564;23.280;2023-09-18T11:29:15;98953.06;;;28.54;nan
6194;BME280;3130;41.564;23.280;2023-09-18T11:31:46;99004.44;;;28.90;nan
6194;BME280;3130;41.564;23.280;2023-09-18T11:34:20;99004.22;;;29.05;nan
6194;BME280;3130;41.564;23.280;2023-09-18T11:36:48;98992.66;;;29.06;nan
6194;BME280;3130;41.564;23.280;2023-09-18T11:39:33;98987.94;;;29.14;nan
6194;BME280;3130;41.564;23.280;2023-09-18T11:42:09;98961.19;;;28.98;nan
6194;BME280;3130;41.564;23.280;2023-09-18T11:44:37;98981.66;;;29.15;nan
6194;BME280;3130;41.564;23.280;2023-09-18T11:47:09;98977.81;;;29.05;nan
6194;BME280;3130;41.564;23.280;2023-09-18T11:49:48;98975.78;;;29.00;nan
6194;BME280;3130;41.564;23.280;2023-09-18T11:52:20;98914.66;;;28.77;nan
6194;BME280;3130;41.564;23.280;2023-09-18T11:54:48;98974.78;;;29.01;nan
6194;BME280;3130;41.564;23.280;2023-09-18T11:57:17;98968.28;;;28.97;nan
6194;BME280;3130;41.564;23.280;2023-09-18T11:59:45;98966.44;;;29.11;nan
6194;BME280;3130;41.564;23.280;2023-09-18T12:02:13;98889.88;;;28.78;nan
6194;BME280;3130;41.564;23.280;2023-09-18T12:04:48;98961.03;;;29.37;nan
6194;BME280;3130;41.564;23.280;2023-09-18T12:07:16;98958.84;;;29.40;nan
6194;BME280;3130;41.564;23.280;2023-09-18T12:09:46;98942.16;;;29.33;nan
6194;BME280;3130;41.564;23.280;2023-09-18T12:12:15;98957.56;;;29.49;nan
6194;BME280;3130;41.564;23.280;2023-09-18T12:14:43;98931.53;;;29.46;nan
6194;BME280;3130;41.564;23.280;2023-09-18T12:17:14;98926.09;;;29.41;nan
6194;BME280;3130;41.564;23.280;2023-09-18T12:19:52;98890.13;;;29.27;nan
6194;BME280;3130;41.564;23.280;2023-09-18T12:22:24;98908.19;;;29.43;nan
6194;BME280;3130;41.564;23.280;2023-09-18T12:24:52;98926.59;;;29.63;nan
6194;BME280;3130;41.564;23.280;2023-09-18T12:27:19;98915.19;;;29.69;nan
6194;BME280;3130;41.564;23.280;2023-09-18T12:29:46;98936.66;;;29.78;nan
6194;BME280;3130;41.564;23.280;2023-09-18T12:32:14;98934.97;;;29.90;nan
6194;BME280;3130;41.564;23.280;2023-09-18T12:34:41;98932.09;;;29.98;nan
6194;BME280;3130;41.564;23.280;2023-09-18T12:37:12;98935.34;;;30.00;nan
6194;BME280;3130;41.564;23.280;2023-09-18T12:39:39;98937.16;;;30.00;nan
6194;BME280;3130;41.564;23.280;2023-09-18T12:42:07;98863.75;;;29.65;nan
6194;BME280;3130;41.564;23.280;2023-09-18T12:44:35;98868.34;;;29.76;nan
6194;BME280;3130;41.564;23.280;2023-09-18T12:47:03;98930.19;;;30.12;nan
6194;BME280;3130;41.564;23.280;2023-09-18T12:49:31;98931.81;;;30.06;nan
6194;BME280;3130;41.564;23.280;2023-09-18T12:52:00;98924.16;;;29.98;nan
6194;BME280;3130;41.564;23.280;2023-09-18T12:54:42;98914.63;;;30.22;nan
6194;BME280;3130;41.564;23.280;2023-09-18T12:57:09;98913.38;;;30.24;nan
6194;BME280;3130;41.564;23.280;2023-09-18T12:59:37;98915.91;;;30.37;nan
6194;BME280;3130;41.564;23.280;2023-09-18T13:02:06;98892.91;;;30.38;nan
6194;BME280;3130;41.564;23.280;2023-09-18T13:04:35;98905.09;;;30.63;nan
6194;BME280;3130;41.564;23.280;2023-09-18T13:07:08;98905.09;;;30.63;nan
6194;BME280;3130;41.564;23.280;2023-09-18T13:09:36;98900.16;;;30.67;nan
6194;BME280;3130;41.564;23.280;2023-09-18T13:12:06;98839.88;;;30.02;nan
6194;BME280;3130;41.564;23.280;2023-09-18T13:14:58;98886.41;;;30.34;nan
6194;BME280;3130;41.564;23.280;2023-09-18T13:17:36;98885.47;;;30.46;nan
6194;BME280;3130;41.564;23.280;2023-09-18T13:20:09;98874.88;;;30.46;nan
6194;BME280;3130;41.564;23.280;2023-09-18T13:22:37;98898.78;;;30.64;nan
6194;BME280;3130;41.564;23.280;2023-09-18T13:25:05;98887.09;;;30.72;nan
6194;BME280;3130;41.564;23.280;2023-09-18T13:27:34;98869.81;;;30.69;nan
6194;BME280;3130;41.564;23.280;2023-09-18T13:30:02;98855.63;;;30.64;nan
6194;BME280;3130;41.564;23.280;2023-09-18T13:32:34;98878.78;;;30.86;nan
6194;BME280;3130;41.564;23.280;2023-09-18T13:35:02;98867.84;;;30.83;nan
6194;BME280;3130;41.564;23.280;2023-09-18T13:37:32;98878.97;;;31.02;nan
6194;BME280;3130;41.564;23.280;2023-09-18T13:39:59;98873.19;;;31.12;nan
6194;BME280;3130;41.564;23.280;2023-09-18T13:42:29;98863.91;;;31.03;nan